Time;durP1;ratioP1;P1;durP2;ratioP2;P2;SDS_P1;SDS_P2;PMS_P1;PMS_P2;Temp;Humidity;BMP_temperature;BMP_pressure;BME280_temperature;BME280_humidity;BME280_pressure;Samples;Min_cycle;Max_cycle;Signal;HPM_P1;HPM_P2
2021/01/14 00:02:22;;;;;;;16.77;3.67;;;;;;;3.16;78.61;101768.63;4930551;28;20182;-75
2021/01/14 00:04:47;;;;;;;16.23;2.40;;;;;;;3.46;79.08;101819.84;4930320;28;20023;-75
2021/01/14 00:07:13;;;;;;;17.52;2.42;;;;;;;3.45;79.39;101834.81;4930335;28;20118;-75
2021/01/14 00:09:38;;;;;;;17.52;2.22;;;;;;;3.45;79.70;101833.97;4948150;28;20122;-74
2021/01/14 00:12:04;;;;;;;15.80;2.40;;;;;;;3.45;80.03;101823.41;4943426;28;20139;-74
2021/01/14 00:14:30;;;;;;;16.52;2.70;;;;;;;3.42;79.81;101824.41;4945755;28;20035;-75
2021/01/14 00:16:56;;;;;;;16.67;2.63;;;;;;;3.42;80.17;101823.56;4942309;28;20114;-76
2021/01/14 00:19:21;;;;;;;17.48;2.60;;;;;;;3.40;82.77;101825.44;4962717;28;20026;-76
2021/01/14 00:21:47;;;;;;;13.05;2.60;;;;;;;3.38;83.26;101820.25;4946415;28;20130;-76
2021/01/14 00:24:12;;;;;;;16.70;2.05;;;;;;;3.34;81.59;101808.16;4945772;28;20031;-76
2021/01/14 00:26:40;;;;;;;11.27;2.70;;;;;;;3.31;80.42;101819.72;4960104;28;20106;-76
2021/01/14 00:29:06;;;;;;;19.98;2.75;;;;;;;3.15;80.63;101801.22;4944694;28;20518;-76
2021/01/14 00:31:31;;;;;;;17.38;2.05;;;;;;;3.31;80.87;101822.38;4942947;28;20179;-76
2021/01/14 00:33:57;;;;;;;17.45;2.67;;;;;;;3.34;80.89;101816.06;4944011;28;20039;-76
2021/01/14 00:36:33;;;;;;;13.95;2.70;;;;;;;3.35;81.33;101815.97;4950276;28;20488;-76
2021/01/14 00:39:02;;;;;;;10.48;2.30;;;;;;;3.34;81.39;101816.91;4948209;28;20110;-77
2021/01/14 00:41:27;;;;;;;21.52;3.58;;;;;;;3.31;80.96;101819.72;4944593;28;20041;-76
2021/01/14 00:43:53;;;;;;;12.50;2.70;;;;;;;3.24;80.71;101799.03;4948773;28;20027;-77
2021/01/14 00:46:19;;;;;;;12.70;2.08;;;;;;;3.15;81.33;101795.09;4942604;28;20050;-76
2021/01/14 00:48:45;;;;;;;13.70;2.20;;;;;;;3.19;80.92;101808.03;4945309;28;20648;-76
2021/01/14 00:51:10;;;;;;;13.60;2.80;;;;;;;3.27;81.34;101823.47;4911035;28;20561;-77
2021/01/14 00:53:38;;;;;;;11.18;2.08;;;;;;;3.25;80.80;101824.47;4938897;28;20315;-74
2021/01/14 00:56:04;;;;;;;13.45;2.05;;;;;;;3.16;80.19;101810.81;4945604;28;20035;-76
2021/01/14 00:58:29;;;;;;;14.48;2.10;;;;;;;3.20;80.58;101825.56;4944585;28;20027;-76
2021/01/14 01:00:55;;;;;;;13.30;2.03;;;;;;;3.20;80.84;101829.97;4946824;28;20073;-76
2021/01/14 01:03:20;;;;;;;14.90;2.60;;;;;;;3.16;81.12;101837.22;4947312;28;20126;-76
2021/01/14 01:05:46;;;;;;;11.63;2.30;;;;;;;3.18;81.08;101837.16;4942681;28;20113;-76
2021/01/14 01:08:11;;;;;;;14.27;2.10;;;;;;;3.17;81.05;101836.28;4959611;28;20698;-76
2021/01/14 01:10:37;;;;;;;12.20;2.25;;;;;;;3.16;80.65;101846.91;4947555;28;20566;-76
2021/01/14 01:13:02;;;;;;;12.18;1.92;;;;;;;3.14;81.10;101841.69;4945405;28;20122;-77
2021/01/14 01:15:29;;;;;;;12.73;2.28;;;;;;;3.04;80.81;101822.91;4943841;28;20113;-76
2021/01/14 01:17:55;;;;;;;16.98;2.53;;;;;;;3.14;81.85;101836.44;4925982;28;20031;-74
2021/01/14 01:20:20;;;;;;;15.30;3.72;;;;;;;3.00;81.37;101810.78;4945052;28;20202;-74
2021/01/14 01:22:46;;;;;;;21.30;6.25;;;;;;;2.85;81.04;101795.75;4950341;28;20565;-77
2021/01/14 01:25:11;;;;;;;19.05;5.45;;;;;;;3.08;81.83;101835.91;4942999;28;20145;-77
2021/01/14 01:27:37;;;;;;;14.18;3.30;;;;;;;3.08;83.39;101834.13;4938146;28;20054;-77
2021/01/14 01:30:03;;;;;;;20.48;2.80;;;;;;;3.05;81.42;101834.28;4940538;28;20029;-75
2021/01/14 01:32:29;;;;;;;16.05;2.78;;;;;;;3.03;80.99;101841.41;4938632;28;20050;-75
2021/01/14 01:34:54;;;;;;;13.02;3.00;;;;;;;3.04;81.54;101845.75;4939352;28;20121;-75
2021/01/14 01:37:20;;;;;;;13.45;2.97;;;;;;;3.05;81.14;101858.00;4943454;28;20049;-76
2021/01/14 01:39:46;;;;;;;6.88;2.08;;;;;;;2.85;81.78;101830.03;4941485;28;20109;-75
2021/01/14 01:42:11;;;;;;;12.85;2.67;;;;;;;3.02;80.48;101866.94;4940369;28;20027;-75
2021/01/14 01:44:37;;;;;;;11.52;2.45;;;;;;;3.01;81.20;101869.66;4923009;28;20162;-75
2021/01/14 01:47:05;;;;;;;9.13;2.08;;;;;;;3.00;82.32;101873.22;4942546;28;20545;-75
2021/01/14 01:49:32;;;;;;;10.35;2.20;;;;;;;2.82;81.72;101853.91;4942892;28;20146;-75
2021/01/14 01:51:58;;;;;;;15.50;2.67;;;;;;;2.95;81.23;101878.72;4944625;28;20051;-75
2021/01/14 01:54:23;;;;;;;11.93;2.28;;;;;;;2.99;82.69;101892.59;4928505;28;20462;-75
2021/01/14 01:56:49;;;;;;;10.30;2.67;;;;;;;2.92;83.19;101876.22;4958729;28;20095;-75
2021/01/14 01:59:17;;;;;;;9.48;2.60;;;;;;;2.96;83.53;101893.63;4927457;29;20031;-75
2021/01/14 02:01:42;;;;;;;7.03;1.90;;;;;;;2.95;84.12;101894.53;4942454;28;20019;-75
2021/01/14 02:04:08;;;;;;;14.50;2.60;;;;;;;2.93;82.76;101896.41;4946316;28;20031;-75
2021/01/14 02:06:36;;;;;;;6.50;2.10;;;;;;;2.94;82.54;101903.38;4943248;28;20078;-75
2021/01/14 02:09:02;;;;;;;11.27;2.05;;;;;;;2.92;83.05;101894.69;4938403;28;20027;-75
2021/01/14 02:11:37;;;;;;;18.73;2.30;;;;;;;2.94;81.93;101902.53;4926515;28;20042;-78
2021/01/14 02:14:07;;;;;;;17.52;2.95;;;;;;;2.83;81.43;101888.13;4961529;28;20587;-75
2021/01/14 02:16:33;;;;;;;10.93;2.00;;;;;;;2.77;81.84;101884.94;4926432;28;20031;-75
2021/01/14 02:18:58;;;;;;;9.80;2.05;;;;;;;2.94;82.07;101899.91;4944992;28;20486;-75
2021/01/14 02:21:27;;;;;;;14.40;2.28;;;;;;;2.59;82.08;101854.13;4922953;29;20123;-76
2021/01/14 02:24:03;;;;;;;8.63;1.80;;;;;;;2.89;81.54;101919.44;4928674;28;20433;-75
2021/01/14 02:26:29;;;;;;;7.95;1.70;;;;;;;2.87;81.80;101913.38;4940146;28;20384;-76
2021/01/14 02:28:55;;;;;;;22.67;2.22;;;;;;;2.74;82.31;101888.56;4925431;28;20047;-79
2021/01/14 02:31:21;;;;;;;12.90;2.17;;;;;;;2.65;82.18;101876.69;4944126;28;20446;-74
2021/01/14 02:33:50;;;;;;;8.88;1.75;;;;;;;2.83;83.12;101900.44;4941306;28;20487;-75
2021/01/14 02:36:16;;;;;;;8.13;1.65;;;;;;;2.72;84.54;101891.28;4940663;28;20246;-75
2021/01/14 02:38:42;;;;;;;6.95;1.80;;;;;;;2.85;84.09;101909.97;4942143;28;20059;-74
2021/01/14 02:41:07;;;;;;;15.57;1.90;;;;;;;2.81;85.28;101905.81;4946293;28;20110;-75
2021/01/14 02:43:34;;;;;;;10.88;1.70;;;;;;;2.87;83.97;101912.56;4938571;28;20058;-75
2021/01/14 02:45:59;;;;;;;9.65;2.42;;;;;;;2.88;85.10;101915.09;4943804;28;20039;-75
2021/01/14 02:48:44;;;;;;;10.48;1.90;;;;;;;2.85;83.98;101917.88;4943646;28;20085;-75
2021/01/14 02:51:19;;;;;;;11.95;1.90;;;;;;;2.81;83.83;101918.97;4944247;28;20063;-74
2021/01/14 02:53:44;;;;;;;13.77;2.30;;;;;;;2.78;84.56;101913.84;4909338;28;20094;-75
2021/01/14 02:56:10;;;;;;;20.40;2.67;;;;;;;2.77;84.62;101911.31;4926167;28;20122;-76
2021/01/14 02:58:35;;;;;;;17.23;2.15;;;;;;;2.70;85.64;101908.97;4925688;28;20043;-76
2021/01/14 03:01:01;;;;;;;9.32;1.92;;;;;;;2.66;85.84;101912.66;4946034;28;20063;-75
2021/01/14 03:03:27;;;;;;;9.27;2.10;;;;;;;2.40;86.46;101898.13;4926677;28;20124;-75
2021/01/14 03:05:52;;;;;;;12.00;2.13;;;;;;;2.49;86.08;101902.13;4956671;28;20035;-75
2021/01/14 03:08:18;;;;;;;11.38;2.00;;;;;;;2.56;85.35;101916.69;4943984;28;20521;-76
2021/01/14 03:10:46;;;;;;;10.35;1.75;;;;;;;2.57;85.91;101921.91;4947190;28;20596;-75
2021/01/14 03:13:11;;;;;;;;;;;;;;;2.55;87.46;101926.38;4947666;28;20035;-75
2021/01/14 03:15:37;;;;;;;11.45;2.38;;;;;;;2.20;83.91;101870.13;4946974;28;19918;-75
2021/01/14 03:18:03;;;;;;;10.55;2.10;;;;;;;2.51;82.62;101922.19;4941387;28;20115;-75
2021/01/14 03:20:28;;;;;;;12.05;1.83;;;;;;;2.52;84.55;101926.53;4925783;29;20023;-77
2021/01/14 03:22:54;;;;;;;10.63;2.17;;;;;;;2.54;86.38;101918.53;4948329;28;20047;-75
2021/01/14 03:25:19;;;;;;;11.75;2.20;;;;;;;2.54;87.52;101919.41;4930003;28;20137;-75
2021/01/14 03:27:45;;;;;;;9.15;2.13;;;;;;;2.49;84.45;101920.56;4944689;28;20122;-75
2021/01/14 03:30:11;;;;;;;13.63;2.30;;;;;;;2.46;84.36;101911.00;4948794;28;20605;-76
2021/01/14 03:32:37;;;;;;;13.30;1.80;;;;;;;2.30;84.67;101889.81;4947752;28;20039;-76
2021/01/14 03:35:04;;;;;;;12.98;2.17;;;;;;;2.32;85.09;101887.97;4931086;28;20059;-75
2021/01/14 03:37:29;;;;;;;9.50;1.80;;;;;;;2.50;84.56;101917.00;4932034;28;20043;-76
2021/01/14 03:39:55;;;;;;;12.10;1.70;;;;;;;2.48;83.61;101921.50;4947638;28;20041;-75
2021/01/14 03:42:21;;;;;;;10.07;2.10;;;;;;;2.30;83.29;101900.34;4959630;28;20465;-76
2021/01/14 03:44:46;;;;;;;13.25;2.88;;;;;;;2.47;83.15;101909.22;4944627;28;20067;-75
2021/01/14 03:47:12;;;;;;;13.43;1.92;;;;;;;2.27;84.55;101882.94;4947588;28;20927;-75
2021/01/14 03:49:38;;;;;;;9.32;1.70;;;;;;;2.47;85.14;101919.78;4912600;28;20043;-75
2021/01/14 03:52:03;;;;;;;12.95;1.90;;;;;;;2.48;85.85;101917.06;4946704;28;20174;-75
2021/01/14 03:54:30;;;;;;;8.68;2.38;;;;;;;2.46;85.92;101916.28;4946124;28;20059;-75
2021/01/14 03:56:55;;;;;;;13.60;2.33;;;;;;;2.47;87.36;101917.13;4950049;28;20138;-76
2021/01/14 03:59:21;;;;;;;8.95;1.92;;;;;;;2.45;87.49;101922.47;4949518;28;20239;-76
2021/01/14 04:01:46;;;;;;;11.02;2.08;;;;;;;2.45;87.04;101925.09;4948827;28;20122;-76
2021/01/14 04:04:12;;;;;;;13.05;2.00;;;;;;;2.42;84.70;101926.13;4949357;28;20443;-75
2021/01/14 04:06:38;;;;;;;10.13;2.10;;;;;;;2.27;84.38;101908.41;4948403;28;20035;-75
2021/01/14 04:09:05;;;;;;;10.88;2.50;;;;;;;2.36;83.97;101915.00;4946570;28;20142;-76
2021/01/14 04:11:31;;;;;;;13.95;2.53;;;;;;;2.47;84.89;101933.78;4946540;28;20035;-77
2021/01/14 04:13:56;;;;;;;9.32;2.28;;;;;;;2.47;83.51;101925.03;4950068;28;20121;-77
2021/01/14 04:16:22;;;;;;;10.95;2.25;;;;;;;2.49;83.54;101929.31;4926463;28;20126;-77
2021/01/14 04:18:47;;;;;;;15.82;2.22;;;;;;;2.49;83.67;101925.81;4945835;28;20118;-76
2021/01/14 04:21:14;;;;;;;14.63;2.08;;;;;;;2.35;82.95;101905.41;4949716;28;20606;-76
2021/01/14 04:23:39;;;;;;;12.07;2.17;;;;;;;2.45;83.30;101925.09;4948031;28;20023;-74
2021/01/14 04:26:05;;;;;;;10.00;2.42;;;;;;;2.45;84.53;101922.47;4945952;28;20075;-75
2021/01/14 04:28:30;;;;;;;8.10;2.20;;;;;;;2.46;83.64;101929.44;4947646;28;20510;-76
2021/01/14 04:30:56;;;;;;;12.40;2.25;;;;;;;2.29;83.35;101909.19;4945835;28;20118;-75
2021/01/14 04:33:21;;;;;;;16.33;2.60;;;;;;;2.27;84.49;101901.38;4942501;28;20031;-76
2021/01/14 04:35:57;;;;;;;17.40;2.28;;;;;;;2.44;83.89;101931.31;4944544;28;20043;-75
2021/01/14 04:38:24;;;;;;;11.75;2.47;;;;;;;2.31;83.84;101911.75;4947414;28;20102;-75
2021/01/14 04:41:05;;;;;;;10.60;1.92;;;;;;;2.26;83.59;101899.66;4949789;28;20115;-75
2021/01/14 04:43:31;;;;;;;18.95;2.05;;;;;;;2.26;83.36;101891.75;4932789;29;20034;-74
2021/01/14 04:46:04;;;;;;;11.60;1.98;;;;;;;2.14;83.25;101884.44;4942499;28;20043;-74
2021/01/14 04:48:35;;;;;;;11.57;2.50;;;;;;;2.25;83.23;101899.72;4944970;28;20042;-75
2021/01/14 04:51:08;;;;;;;8.98;1.88;;;;;;;2.21;82.65;101892.91;4941684;28;20033;-74
2021/01/14 04:53:35;;;;;;;13.70;1.75;;;;;;;2.39;81.77;101928.88;4941647;28;20082;-75
2021/01/14 04:56:02;;;;;;;14.07;2.33;;;;;;;2.40;82.22;101927.13;4958411;28;20549;-78
2021/01/14 04:58:28;;;;;;;9.88;1.98;;;;;;;2.38;81.60;101931.59;4928463;28;20774;-75
2021/01/14 05:00:53;;;;;;;12.27;1.98;;;;;;;2.38;82.31;101934.25;4928736;28;20183;-76
2021/01/14 05:03:23;;;;;;;12.40;2.28;;;;;;;2.38;82.14;101944.78;4943071;28;20039;-75
2021/01/14 05:05:49;;;;;;;9.13;1.77;;;;;;;2.38;82.29;101939.50;4957248;28;20031;-79
2021/01/14 05:08:15;;;;;;;7.45;1.77;;;;;;;2.37;80.67;101948.34;4939890;28;20123;-75
2021/01/14 05:10:41;;;;;;;12.63;2.67;;;;;;;2.19;79.61;101921.94;4957954;28;20035;-78
2021/01/14 05:13:08;;;;;;;9.68;1.85;;;;;;;2.29;80.01;101943.44;4942614;28;20031;-75
2021/01/14 05:15:34;;;;;;;14.73;1.65;;;;;;;2.12;80.30;101913.47;4929014;28;20031;-76
2021/01/14 05:18:00;;;;;;;13.30;1.60;;;;;;;2.32;79.93;101950.31;4926343;28;20078;-75
2021/01/14 05:20:26;;;;;;;11.57;1.95;;;;;;;2.33;79.27;101949.41;4946059;28;20118;-76
2021/01/14 05:22:59;;;;;;;13.07;2.13;;;;;;;2.33;79.34;101955.53;4945019;28;20509;-75
2021/01/14 05:25:25;;;;;;;14.00;1.90;;;;;;;2.31;79.98;101959.19;4944817;28;20039;-75
2021/01/14 05:27:50;;;;;;;9.02;2.17;;;;;;;1.95;80.29;101897.63;4944813;28;20046;-75
2021/01/14 05:30:17;;;;;;;9.18;1.70;;;;;;;2.24;79.22;101963.88;4940662;28;20099;-75
2021/01/14 05:32:45;;;;;;;12.60;1.83;;;;;;;2.25;81.40;101965.56;4942241;28;20034;-76
2021/01/14 05:35:35;;;;;;;8.93;1.92;;;;;;;1.95;80.65;101927.41;4944216;28;20237;-76
2021/01/14 05:38:03;;;;;;;10.73;1.55;;;;;;;2.15;80.60;101957.25;4943369;28;20051;-75
2021/01/14 05:40:29;;;;;;;23.13;2.75;;;;;;;2.19;80.64;101971.13;4941872;28;20039;-76
2021/01/14 05:43:05;;;;;;;10.82;1.65;;;;;;;2.05;81.75;101951.56;4943229;28;20074;-76
2021/01/14 05:45:31;;;;;;;5.70;1.67;;;;;;;2.13;80.10;101970.47;4944125;28;20039;-76
2021/01/14 05:48:15;;;;;;;14.82;1.60;;;;;;;2.13;80.83;101970.47;4939589;28;20043;-76
2021/01/14 05:50:47;;;;;;;12.13;2.15;;;;;;;2.13;80.29;101977.53;4963470;28;20070;-75
2021/01/14 05:53:21;;;;;;;8.65;1.85;;;;;;;2.10;80.20;101973.25;4945490;28;20142;-75
2021/01/14 05:55:50;;;;;;;15.25;1.65;;;;;;;2.11;80.55;101971.47;4946438;28;20038;-75
2021/01/14 05:58:17;;;;;;;9.85;2.08;;;;;;;2.09;80.05;101971.56;4928240;29;20058;-75
2021/01/14 06:00:44;;;;;;;8.27;1.45;;;;;;;1.92;79.93;101942.50;4927621;28;20031;-75
2021/01/14 06:03:35;;;;;;;12.13;1.60;;;;;;;2.07;79.19;101973.41;4940240;28;20019;-75
2021/01/14 06:06:01;;;;;;;6.57;1.63;;;;;;;2.03;79.87;101969.19;4945402;28;20403;-76
2021/01/14 06:08:27;;;;;;;9.70;2.17;;;;;;;1.09;79.57;101818.16;4942683;28;20122;-76
2021/01/14 06:10:53;;;;;;;9.18;1.88;;;;;;;2.01;79.61;101978.94;4956663;28;20062;-76
2021/01/14 06:13:18;;;;;;;10.52;1.70;;;;;;;1.99;79.94;101975.50;4957265;28;20059;-75
2021/01/14 06:15:44;;;;;;;10.10;1.70;;;;;;;1.64;79.33;101920.06;4942367;28;20647;-82
2021/01/14 06:18:11;;;;;;;15.10;2.05;;;;;;;1.96;79.95;101973.03;4924637;29;20581;-76
2021/01/14 06:20:52;;;;;;;6.35;1.40;;;;;;;1.98;79.98;101971.16;4940572;28;20078;-76
2021/01/14 06:23:22;;;;;;;10.50;2.63;;;;;;;1.72;80.79;101928.44;4947088;28;20034;-76
2021/01/14 06:25:51;;;;;;;8.02;2.85;;;;;;;1.95;81.33;101960.78;4946756;28;21213;-76
2021/01/14 06:28:21;;;;;;;11.52;2.10;;;;;;;1.83;81.40;101952.50;4950910;28;20511;-85
2021/01/14 06:31:01;;;;;;;6.35;1.58;;;;;;;1.90;80.86;101963.63;4943861;28;20391;-76
2021/01/14 06:33:26;;;;;;;7.18;1.92;;;;;;;1.95;81.83;101982.69;4929975;28;20034;-81
2021/01/14 06:36:04;;;;;;;15.13;3.47;;;;;;;1.69;82.14;101933.88;4924239;29;20039;-76
2021/01/14 06:38:45;;;;;;;10.50;1.73;;;;;;;1.73;81.48;101943.31;4926738;28;20036;-75
2021/01/14 06:41:16;;;;;;;8.07;1.95;;;;;;;1.95;82.14;101981.88;4926790;28;20042;-76
2021/01/14 06:43:42;;;;;;;12.45;1.73;;;;;;;1.87;81.81;101968.16;4948414;28;20043;-75
2021/01/14 06:46:14;;;;;;;7.03;2.03;;;;;;;1.96;81.96;101988.84;4908518;29;20031;-75
2021/01/14 06:48:39;;;;;;;8.27;1.80;;;;;;;1.95;81.96;101992.41;4944759;28;20032;-75
2021/01/14 06:51:04;;;;;;;10.32;2.03;;;;;;;1.92;81.76;101993.38;4926721;29;20577;-75
2021/01/14 06:53:30;;;;;;;11.65;1.63;;;;;;;1.78;82.30;101967.66;4950673;28;20131;-76
2021/01/14 06:55:56;;;;;;;8.50;1.77;;;;;;;1.73;81.89;101974.91;4931012;28;20092;-75
2021/01/14 06:58:21;;;;;;;8.50;1.60;;;;;;;1.93;82.45;102002.97;4922622;28;20102;-74
2021/01/14 07:00:47;;;;;;;12.20;2.10;;;;;;;1.95;82.01;102006.41;4947438;28;20039;-75
2021/01/14 07:03:13;;;;;;;9.82;1.40;;;;;;;1.97;82.46;102004.56;4947917;28;20185;-76
2021/01/14 07:06:01;;;;;;;7.95;2.13;;;;;;;1.97;82.09;102001.91;4944588;28;20114;-76
2021/01/14 07:08:35;;;;;;;9.23;1.95;;;;;;;1.98;82.60;102008.03;4946652;28;20063;-75
2021/01/14 07:11:04;;;;;;;12.60;1.65;;;;;;;2.02;82.01;102012.25;4951946;28;20039;-75
2021/01/14 07:13:32;;;;;;;11.43;1.75;;;;;;;1.82;82.22;101982.41;4950896;28;20053;-74
2021/01/14 07:15:58;;;;;;;8.65;1.70;;;;;;;1.94;83.04;102001.22;4946094;28;20391;-74
2021/01/14 07:18:26;;;;;;;7.35;1.60;;;;;;;1.95;82.67;102009.03;4949006;28;20158;-74
2021/01/14 07:20:52;;;;;;;12.45;1.63;;;;;;;1.75;82.27;101972.22;4950199;28;20062;-74
2021/01/14 07:23:18;;;;;;;7.85;1.77;;;;;;;1.96;82.67;102004.63;4928069;29;20106;-74
2021/01/14 07:25:43;;;;;;;10.10;1.88;;;;;;;1.94;82.59;102012.59;4930911;28;20035;-74
2021/01/14 07:28:09;;;;;;;14.65;1.92;;;;;;;1.92;82.97;102014.44;4946218;28;20073;-74
2021/01/14 07:30:34;;;;;;;15.43;2.55;;;;;;;1.82;82.48;101995.56;4930687;28;20031;-75
2021/01/14 07:33:09;;;;;;;11.00;1.42;;;;;;;1.90;82.68;102013.63;4946631;28;20435;-74
2021/01/14 07:35:45;;;;;;;12.05;1.80;;;;;;;1.92;82.42;102017.06;4942910;28;20549;-74
2021/01/14 07:38:17;;;;;;;14.23;2.20;;;;;;;1.83;83.24;102018.31;4927367;28;20032;-75
2021/01/14 07:40:43;;;;;;;15.15;2.10;;;;;;;1.75;82.78;101998.53;4926657;29;20027;-74
2021/01/14 07:43:13;;;;;;;4.53;1.75;;;;;;;1.95;82.77;102029.25;4928282;28;20082;-75
2021/01/14 07:45:39;;;;;;;6.40;1.73;;;;;;;1.94;82.61;102030.16;4943167;28;20031;-74
2021/01/14 07:48:24;;;;;;;15.68;2.10;;;;;;;1.84;82.82;102020.03;4959689;28;20035;-76
2021/01/14 07:50:55;;;;;;;11.73;2.55;;;;;;;1.82;82.31;102021.91;4958206;28;20114;-76
2021/01/14 07:53:21;;;;;;;10.05;1.70;;;;;;;1.94;82.30;102044.19;4925940;29;20146;-77
2021/01/14 07:55:47;;;;;;;12.98;1.73;;;;;;;1.97;82.15;102059.84;4945421;28;20524;-76
2021/01/14 07:58:13;;;;;;;9.88;2.13;;;;;;;2.02;82.11;102050.91;4950869;28;20054;-76
2021/01/14 08:00:41;;;;;;;13.10;1.80;;;;;;;2.03;82.03;102056.09;4950220;28;20034;-76
2021/01/14 08:03:06;;;;;;;;;;;;;;;2.01;82.24;102057.94;4962526;28;20094;-77
2021/01/14 08:05:56;;;;;;;6.15;1.42;;;;;;;1.95;81.44;102051.16;4949094;28;19914;-76
2021/01/14 08:08:26;;;;;;;5.57;1.60;;;;;;;2.13;81.24;102069.72;4932674;28;20054;-73
2021/01/14 08:11:21;;;;;;;12.15;1.75;;;;;;;2.16;81.25;102068.72;4946399;28;20035;-74
2021/01/14 08:14:11;;;;;;;7.18;1.63;;;;;;;2.21;81.61;102075.47;4958167;28;20046;-74
2021/01/14 08:16:40;;;;;;;9.73;1.77;;;;;;;2.22;80.77;102073.72;4944306;28;20114;-76
2021/01/14 08:19:11;;;;;;;7.85;2.45;;;;;;;2.21;80.78;102072.84;4945846;28;20490;-77
2021/01/14 08:21:37;;;;;;;10.38;2.45;;;;;;;2.17;81.05;102073.94;4944700;28;20089;-76
2021/01/14 08:24:03;;;;;;;15.35;2.78;;;;;;;1.93;81.21;102042.47;4940964;28;20557;-76
2021/01/14 08:26:28;;;;;;;12.60;2.90;;;;;;;2.20;80.97;102072.94;4941327;28;20062;-76
2021/01/14 08:29:01;;;;;;;10.98;2.70;;;;;;;2.22;79.86;102079.81;4942288;28;20058;-77
2021/01/14 08:31:36;;;;;;;7.88;3.35;;;;;;;1.43;79.91;101949.00;4923792;28;20031;-76
2021/01/14 08:34:05;;;;;;;13.55;3.45;;;;;;;2.24;79.62;102080.63;4940731;28;20032;-76
2021/01/14 08:36:30;;;;;;;;;;;;;;;2.27;79.44;102080.50;4927901;29;20023;-80
2021/01/14 08:38:55;;;;;;;14.10;3.30;;;;;;;2.29;79.08;102080.41;4942564;28;20050;-76
2021/01/14 08:41:26;;;;;;;9.90;2.35;;;;;;;2.21;77.68;102059.69;4925546;28;20035;-76
2021/01/14 08:43:51;;;;;;;13.30;3.10;;;;;;;2.07;77.93;102048.91;4912916;28;20561;-77
2021/01/14 08:46:36;;;;;;;11.27;2.63;;;;;;;2.42;77.38;102086.00;4928642;28;20027;-77
2021/01/14 08:49:14;;;;;;;8.00;2.55;;;;;;;2.39;77.03;102084.34;4944241;28;20164;-76
2021/01/14 08:51:40;;;;;;;7.35;1.88;;;;;;;2.32;77.26;102082.91;4922972;28;20074;-77
2021/01/14 08:54:06;;;;;;;7.75;2.15;;;;;;;2.34;76.83;102086.34;4926574;28;20071;-77
2021/01/14 08:56:32;;;;;;;11.75;2.30;;;;;;;2.39;77.29;102086.97;4940787;28;20138;-74
2021/01/14 08:59:12;;;;;;;6.78;1.98;;;;;;;2.47;76.86;102081.34;4941919;28;20039;-77
2021/01/14 09:01:37;;;;;;;11.18;2.25;;;;;;;2.45;77.41;102088.47;4925030;29;20043;-77
2021/01/14 09:04:04;;;;;;;8.18;1.67;;;;;;;2.46;77.04;102087.53;4940020;28;20379;-77
2021/01/14 09:06:34;;;;;;;11.65;2.33;;;;;;;2.53;75.44;102085.47;4940663;28;20118;-77
2021/01/14 09:09:02;;;;;;;8.50;2.53;;;;;;;2.45;76.30;102078.78;4953945;28;20086;-77
2021/01/14 09:11:27;;;;;;;8.57;2.13;;;;;;;2.61;76.08;102096.53;4927173;28;20121;-77
2021/01/14 09:14:00;;;;;;;7.07;2.15;;;;;;;2.37;74.95;102062.50;4939221;28;20085;-78
2021/01/14 09:16:26;;;;;;;9.32;1.98;;;;;;;2.62;74.83;102094.75;4937576;28;20122;-78
2021/01/14 09:18:51;;;;;;;8.13;1.98;;;;;;;2.65;75.52;102087.56;4925556;28;20062;-78
2021/01/14 09:21:17;;;;;;;7.38;2.22;;;;;;;2.62;74.65;102094.75;4938596;28;20121;-78
2021/01/14 09:23:42;;;;;;;8.13;1.70;;;;;;;2.62;76.07;102086.84;4938044;28;20118;-74
2021/01/14 09:26:18;;;;;;;10.90;2.30;;;;;;;2.71;74.78;102092.56;4941194;28;20042;-75
2021/01/14 09:28:47;;;;;;;12.13;1.88;;;;;;;2.72;74.47;102093.41;4941079;28;20486;-78
2021/01/14 09:31:13;;;;;;;9.30;1.90;;;;;;;2.78;74.37;102092.28;4936965;28;20039;-78
2021/01/14 09:33:43;;;;;;;7.82;1.90;;;;;;;2.28;73.49;102015.47;4922754;29;20214;-77
2021/01/14 09:36:18;;;;;;;9.15;2.50;;;;;;;2.75;74.49;102095.91;4940241;28;20119;-78
2021/01/14 09:38:54;;;;;;;15.85;2.15;;;;;;;2.49;74.05;102054.94;4942935;28;20118;-77
2021/01/14 09:41:36;;;;;;;8.93;2.10;;;;;;;2.72;74.11;102107.44;4941195;28;20027;-79
2021/01/14 09:44:06;;;;;;;9.15;1.85;;;;;;;2.68;73.88;102079.50;4941548;28;20047;-77
2021/01/14 09:46:36;;;;;;;11.93;1.80;;;;;;;2.73;73.63;102071.38;4936453;28;20015;-77
2021/01/14 09:49:06;;;;;;;8.15;2.10;;;;;;;2.89;73.51;102108.44;4940078;28;20406;-77
2021/01/14 09:51:35;;;;;;;12.38;2.05;;;;;;;2.93;72.97;102111.78;4940363;28;20126;-77
2021/01/14 09:54:05;;;;;;;13.80;2.33;;;;;;;2.85;73.11;102096.31;4956555;28;20058;-78
2021/01/14 09:56:34;;;;;;;8.52;1.75;;;;;;;2.93;72.34;102107.34;4941408;28;20490;-77
2021/01/14 09:59:26;;;;;;;8.82;2.00;;;;;;;2.88;73.07;102115.50;4939454;28;20050;-77
2021/01/14 10:01:53;;;;;;;9.20;2.00;;;;;;;2.75;73.26;102112.59;4944044;28;20054;-77
2021/01/14 10:04:22;;;;;;;7.40;1.73;;;;;;;2.71;73.90;102102.25;4922354;28;20034;-80
2021/01/14 10:07:05;;;;;;;8.63;2.42;;;;;;;2.91;71.94;102125.91;4924025;28;20178;-78
2021/01/14 10:09:33;;;;;;;9.18;2.50;;;;;;;2.80;72.91;102129.94;4923747;29;20373;-78
2021/01/14 10:12:00;;;;;;;8.63;2.00;;;;;;;2.61;73.20;102099.19;4925242;29;20053;-78
2021/01/14 10:14:26;;;;;;;8.07;2.15;;;;;;;2.80;72.51;102119.41;4935574;28;20905;-76
2021/01/14 10:16:51;;;;;;;8.95;2.40;;;;;;;2.80;71.93;102112.38;4939450;28;20038;-77
2021/01/14 10:19:18;;;;;;;10.57;2.40;;;;;;;2.57;72.03;102071.25;4941806;28;20094;-77
2021/01/14 10:21:44;;;;;;;8.63;1.98;;;;;;;2.75;72.47;102094.13;4926177;29;20146;-77
2021/01/14 10:24:29;;;;;;;9.98;2.10;;;;;;;2.75;72.01;102064.25;4941111;28;20521;-80
2021/01/14 10:27:09;;;;;;;10.43;2.88;;;;;;;3.10;70.78;102108.34;4958474;28;21198;-77
2021/01/14 10:29:41;;;;;;;9.68;2.45;;;;;;;2.79;70.99;102091.31;4924664;28;20073;-77
2021/01/14 10:32:12;;;;;;;8.35;2.53;;;;;;;3.03;70.08;102107.78;4930348;28;20062;-77
2021/01/14 10:34:41;;;;;;;8.82;2.50;;;;;;;2.71;69.97;102053.00;4903162;28;20035;-77
2021/01/14 10:37:19;;;;;;;10.60;2.63;;;;;;;3.03;71.00;102099.88;4933676;28;20027;-76
2021/01/14 10:39:45;;;;;;;;;;;;;;;2.99;71.41;102096.53;4934759;28;20604;-76
2021/01/14 10:42:30;;;;;;;7.22;2.92;;;;;;;3.05;70.96;102093.59;4940724;28;19914;-76
2021/01/14 10:45:06;;;;;;;9.13;3.28;;;;;;;2.98;70.36;102088.72;4937726;28;20359;-76
2021/01/14 10:47:31;;;;;;;8.88;2.53;;;;;;;3.05;70.96;102090.94;4941346;28;20031;-76
2021/01/14 10:49:57;;;;;;;8.48;3.00;;;;;;;3.05;70.42;102088.31;4923603;29;20116;-76
2021/01/14 10:52:22;;;;;;;7.85;2.70;;;;;;;3.13;70.41;102080.03;4942681;29;20129;-76
2021/01/14 10:54:58;;;;;;;8.63;3.00;;;;;;;2.87;71.00;102044.38;4942218;29;20121;-76
2021/01/14 10:57:24;;;;;;;7.45;2.58;;;;;;;3.19;69.15;102077.09;4923590;28;20182;-76
2021/01/14 10:59:49;;;;;;;5.88;2.40;;;;;;;3.21;70.70;102079.66;4936158;28;20043;-76
2021/01/14 11:02:16;;;;;;;10.65;3.60;;;;;;;3.22;69.67;102074.31;4941994;28;20122;-76
2021/01/14 11:04:52;;;;;;;9.00;3.65;;;;;;;3.06;70.69;102041.72;4938700;28;20035;-76
2021/01/14 11:07:18;;;;;;;9.18;3.13;;;;;;;3.17;72.53;102068.41;4937904;28;20023;-77
2021/01/14 11:09:50;;;;;;;11.60;3.50;;;;;;;3.14;70.63;102068.56;4954522;28;20110;-77
2021/01/14 11:12:16;;;;;;;8.57;3.75;;;;;;;3.08;70.43;102065.34;4943871;29;20063;-77
2021/01/14 11:14:42;;;;;;;5.03;2.60;;;;;;;3.09;70.08;102065.31;4941112;28;20050;-77
2021/01/14 11:17:07;;;;;;;10.63;3.40;;;;;;;2.82;69.68;102018.25;4936375;28;20041;-77
2021/01/14 11:19:33;;;;;;;8.70;3.22;;;;;;;3.00;70.71;102066.59;4939820;28;20311;-76
2021/01/14 11:21:58;;;;;;;6.88;3.03;;;;;;;2.96;71.24;102075.56;4959597;28;20114;-76
2021/01/14 11:24:24;;;;;;;8.07;3.90;;;;;;;2.94;71.36;102064.25;4942304;29;20034;-77
2021/01/14 11:26:52;;;;;;;9.38;3.67;;;;;;;2.82;71.03;102041.09;4945980;29;20132;-77
2021/01/14 11:29:18;;;;;;;;;;;;;;;2.90;71.30;102065.34;4929383;29;20059;-77
2021/01/14 11:31:43;;;;;;;6.75;3.20;;;;;;;2.94;72.09;102058.97;4946066;28;20422;-77
2021/01/14 11:34:09;;;;;;;11.90;3.72;;;;;;;2.95;72.95;102054.56;4947764;28;20157;-77
2021/01/14 11:36:34;;;;;;;10.25;3.47;;;;;;;2.96;72.67;102056.28;4939485;28;20225;-77